createdAt,value
2017-08-20T00:02:09.973Z,2.47
2017-08-20T00:04:37.489Z,2.67
2017-08-20T00:07:05.790Z,2.60
2017-08-20T00:09:33.327Z,2.50
2017-08-20T00:12:01.645Z,2.78
2017-08-20T00:14:29.166Z,3.40
2017-08-20T00:16:57.490Z,3.08
2017-08-20T00:19:25.011Z,2.67
2017-08-20T00:21:52.530Z,2.65
2017-08-20T00:24:20.073Z,3.00
2017-08-20T00:26:47.609Z,2.60
2017-08-20T00:29:15.149Z,2.85
2017-08-20T00:31:42.684Z,2.72
2017-08-20T00:34:10.233Z,2.45
2017-08-20T00:36:37.740Z,2.65
2017-08-20T00:39:05.293Z,2.50
2017-08-20T00:41:32.818Z,2.40
2017-08-20T00:44:01.129Z,2.70
2017-08-20T00:46:28.651Z,2.83
2017-08-20T00:48:56.210Z,2.50
2017-08-20T00:51:23.725Z,2.70
2017-08-20T00:53:51.249Z,2.80
2017-08-20T00:56:19.593Z,2.60
2017-08-20T00:58:47.117Z,2.55
2017-08-20T01:01:14.673Z,2.50
2017-08-20T01:03:42.204Z,2.40
2017-08-20T01:06:10.510Z,2.70
2017-08-20T01:08:38.025Z,2.10
2017-08-20T01:11:06.338Z,2.58
2017-08-20T01:13:33.857Z,2.45
2017-08-20T01:16:02.177Z,2.75
2017-08-20T01:18:30.616Z,2.53
2017-08-20T01:20:59.284Z,2.40
2017-08-20T01:23:27.618Z,2.80
2017-08-20T01:25:55.129Z,2.53
2017-08-20T01:28:22.665Z,2.30
2017-08-20T01:30:50.177Z,2.90
2017-08-20T01:33:17.725Z,3.40
2017-08-20T01:35:45.245Z,2.67
2017-08-20T01:38:12.798Z,3.03
2017-08-20T01:40:40.312Z,2.70
2017-08-20T01:43:08.610Z,2.55
2017-08-20T01:45:36.131Z,2.58
2017-08-20T01:48:04.430Z,2.30
2017-08-20T01:50:31.968Z,3.10
2017-08-20T01:53:00.287Z,2.70
2017-08-20T01:55:27.812Z,2.70
2017-08-20T01:57:56.088Z,3.15
2017-08-20T02:00:23.626Z,2.85
2017-08-20T02:02:51.154Z,2.85
2017-08-20T02:05:18.699Z,3.00
2017-08-20T02:07:46.211Z,2.50
2017-08-20T02:10:13.764Z,3.08
2017-08-20T02:12:42.045Z,3.00
2017-08-20T02:15:10.357Z,2.87
2017-08-20T02:17:37.894Z,2.90
2017-08-20T02:20:05.456Z,2.65
2017-08-20T02:22:32.979Z,2.60
2017-08-20T02:25:00.517Z,3.12
2017-08-20T02:27:28.034Z,3.03
2017-08-20T02:29:55.584Z,3.12
2017-08-20T02:32:23.867Z,2.90
2017-08-20T02:34:52.165Z,3.70
2017-08-20T02:37:19.709Z,3.17
2017-08-20T02:39:47.223Z,3.45
2017-08-20T02:42:14.758Z,3.17
2017-08-20T02:44:42.285Z,3.03
2017-08-20T02:47:09.821Z,3.15
2017-08-20T02:49:38.113Z,3.42
2017-08-20T02:52:05.661Z,3.17
2017-08-20T02:54:33.928Z,3.45
2017-08-20T02:57:02.237Z,4.00
2017-08-20T02:59:29.754Z,2.90
2017-08-20T03:01:57.288Z,3.65
2017-08-20T03:04:24.805Z,3.35
2017-08-20T03:06:52.342Z,3.30
2017-08-20T03:09:20.642Z,3.20
2017-08-20T03:11:48.160Z,3.55
2017-08-20T03:14:15.685Z,3.17
2017-08-20T03:16:43.201Z,3.08
2017-08-20T03:19:11.506Z,3.33
2017-08-20T03:21:39.028Z,3.37
2017-08-20T03:24:07.325Z,3.50
2017-08-20T03:26:34.843Z,3.75
2017-08-20T03:29:02.380Z,3.15
2017-08-20T03:31:29.888Z,2.92
2017-08-20T03:33:58.209Z,4.10
2017-08-20T03:36:25.713Z,3.90
2017-08-20T03:38:53.265Z,4.20
2017-08-20T03:41:20.769Z,4.75
2017-08-20T03:43:48.290Z,3.35
2017-08-20T03:46:16.591Z,3.83
2017-08-20T03:48:44.118Z,3.40
2017-08-20T03:51:11.657Z,3.40
2017-08-20T03:53:39.989Z,3.22
2017-08-20T03:56:07.561Z,3.35
2017-08-20T03:58:35.801Z,3.15
2017-08-20T04:01:04.105Z,3.55
2017-08-20T04:03:31.615Z,3.25
2017-08-20T04:05:59.148Z,2.90
2017-08-20T04:08:26.655Z,3.45
2017-08-20T04:10:54.951Z,4.22
2017-08-20T04:13:22.458Z,4.12
2017-08-20T04:15:49.993Z,4.07
2017-08-20T04:18:17.497Z,4.10
2017-08-20T04:20:45.032Z,4.22
2017-08-20T04:23:12.541Z,3.80
2017-08-20T04:25:40.065Z,4.30
2017-08-20T04:28:07.594Z,4.40
2017-08-20T04:30:35.099Z,3.80
2017-08-20T04:33:03.404Z,3.95
2017-08-20T04:35:30.921Z,4.25
2017-08-20T04:37:58.450Z,3.90
2017-08-20T04:40:25.969Z,3.90
2017-08-20T04:42:53.534Z,3.60
2017-08-20T04:45:21.049Z,3.45
2017-08-20T04:47:48.580Z,3.60
2017-08-20T04:50:16.098Z,3.70
2017-08-20T04:52:43.636Z,4.10
2017-08-20T04:55:11.166Z,3.70
2017-08-20T04:57:38.681Z,3.10
2017-08-20T05:00:06.217Z,3.25
2017-08-20T05:02:35.397Z,3.15
2017-08-20T05:05:02.977Z,2.75
2017-08-20T05:07:31.257Z,3.05
2017-08-20T05:09:59.557Z,3.15
2017-08-20T05:12:27.073Z,2.75
2017-08-20T05:14:54.599Z,2.97
2017-08-20T05:17:22.117Z,3.00
2017-08-20T05:19:49.644Z,2.65
2017-08-20T05:22:17.161Z,2.75
2017-08-20T05:24:44.705Z,3.10
2017-08-20T05:27:12.227Z,2.62
2017-08-20T05:29:39.741Z,2.20
2017-08-20T05:32:07.272Z,2.40
2017-08-20T05:34:34.780Z,2.37
2017-08-20T05:37:02.314Z,3.10
2017-08-20T05:39:29.840Z,2.83
2017-08-20T05:41:57.377Z,2.83
2017-08-20T05:44:24.893Z,2.35
2017-08-20T05:46:52.457Z,2.58
2017-08-20T05:49:19.983Z,2.92
2017-08-20T05:51:47.510Z,2.20
2017-08-20T05:54:15.797Z,2.55
2017-08-20T05:56:44.104Z,2.40
2017-08-20T05:59:11.622Z,2.83
2017-08-20T06:01:39.132Z,2.58
2017-08-20T06:04:06.677Z,2.03
2017-08-20T06:06:34.215Z,2.53
2017-08-20T06:09:02.513Z,2.17
2017-08-20T06:11:30.033Z,2.15
2017-08-20T06:13:57.585Z,2.30
2017-08-20T06:16:25.118Z,1.98
2017-08-20T06:18:52.649Z,2.08
2017-08-20T06:21:20.186Z,2.37
2017-08-20T06:23:47.732Z,2.25
2017-08-20T06:26:16.010Z,2.55
2017-08-20T06:28:44.321Z,2.20
2017-08-20T06:31:11.840Z,2.20
2017-08-20T06:33:40.134Z,2.00
2017-08-20T06:36:07.678Z,2.05
2017-08-20T06:38:39.700Z,2.42
2017-08-20T06:41:07.244Z,2.00
2017-08-20T06:43:34.773Z,2.47
2017-08-20T06:46:03.077Z,2.05
2017-08-20T06:48:30.651Z,1.75
2017-08-20T06:50:58.211Z,1.70
2017-08-20T06:53:25.741Z,1.90
2017-08-20T06:55:53.292Z,1.93
2017-08-20T06:58:20.820Z,1.92
2017-08-20T07:00:48.358Z,1.77
2017-08-20T07:03:15.879Z,1.80
2017-08-20T07:05:43.423Z,1.90
2017-08-20T07:08:11.705Z,1.80
2017-08-20T07:10:41.157Z,1.77
2017-08-20T07:13:08.668Z,2.03
2017-08-20T07:15:36.227Z,1.73
2017-08-20T07:18:03.781Z,1.73
2017-08-20T07:20:31.296Z,1.70
2017-08-20T07:22:58.861Z,2.20
2017-08-20T07:25:26.397Z,1.77
2017-08-20T07:27:53.944Z,2.07
2017-08-20T07:30:21.494Z,2.37
2017-08-20T07:32:49.030Z,1.60
2017-08-20T07:35:16.571Z,2.07
2017-08-20T08:32:17.767Z,1.87
2017-08-20T08:34:45.299Z,1.60
2017-08-20T09:03:10.233Z,1.37
2017-08-20T09:05:38.517Z,1.20
2017-08-20T09:08:06.830Z,1.83
2017-08-20T09:10:34.351Z,1.63
2017-08-20T09:13:02.651Z,1.70
2017-08-20T09:15:30.175Z,1.60
2017-08-20T09:17:57.716Z,1.50
2017-08-20T09:20:25.226Z,1.60
2017-08-20T09:22:52.757Z,1.63
2017-08-20T09:25:20.270Z,1.30
2017-08-20T09:27:47.835Z,1.47
2017-08-20T09:30:15.659Z,1.27
2017-08-20T09:32:43.212Z,1.43
2017-08-20T09:35:11.502Z,1.67
2017-08-20T09:37:39.032Z,1.57
2017-08-20T09:40:07.339Z,1.30
2017-08-20T09:42:34.871Z,1.27
2017-08-20T09:45:03.182Z,1.23
2017-08-20T09:47:30.723Z,1.37
2017-08-20T09:49:58.298Z,1.00
2017-08-20T09:52:25.843Z,1.20
2017-08-20T09:54:53.377Z,1.17
2017-08-20T09:57:20.932Z,1.07
2017-08-20T09:59:48.457Z,1.30
2017-08-20T10:02:16.016Z,1.30
2017-08-20T10:04:43.539Z,1.20
2017-08-20T10:07:11.117Z,1.30
2017-08-20T10:09:38.643Z,1.10
2017-08-20T10:12:06.931Z,1.30
2017-08-20T10:14:34.484Z,1.60
2017-08-20T10:17:02.766Z,1.20
2017-08-20T10:19:30.311Z,1.10
2017-08-20T10:21:58.607Z,1.40
2017-08-20T10:24:26.154Z,1.20
2017-08-20T10:26:54.458Z,1.30
2017-08-20T10:29:22.003Z,1.00
2017-08-20T10:31:49.577Z,1.23
2017-08-20T10:34:17.137Z,1.50
2017-08-20T10:36:44.674Z,1.70
2017-08-20T10:39:12.216Z,1.10
2017-08-20T10:41:40.554Z,1.97
2017-08-20T10:44:08.110Z,1.60
2017-08-20T10:46:35.630Z,1.30
2017-08-20T10:49:03.142Z,2.60
2017-08-20T10:51:30.683Z,2.10
2017-08-20T10:53:58.203Z,1.43
2017-08-20T10:56:25.739Z,1.17
2017-08-20T10:58:53.266Z,1.50
2017-08-20T11:01:20.794Z,1.30
2017-08-20T11:03:48.333Z,1.50
2017-08-20T11:06:15.901Z,1.53
2017-08-20T11:08:43.439Z,1.10
2017-08-20T11:11:11.745Z,1.60
2017-08-20T11:13:39.266Z,1.67
2017-08-20T11:16:07.580Z,1.20
2017-08-20T11:18:35.110Z,1.20
2017-08-20T11:21:03.434Z,1.50
2017-08-20T11:23:30.971Z,1.47
2017-08-20T11:25:58.496Z,1.40
2017-08-20T11:28:26.022Z,1.70
2017-08-20T11:30:53.537Z,1.13
2017-08-20T11:33:21.075Z,1.73
2017-08-20T11:35:49.374Z,1.20
2017-08-20T11:38:16.913Z,1.40
2017-08-20T11:40:45.194Z,1.30
2017-08-20T11:43:13.493Z,1.30
2017-08-20T11:45:41.009Z,1.60
2017-08-20T11:48:08.559Z,1.40
2017-08-20T11:50:36.082Z,1.30
2017-08-20T11:53:03.597Z,1.50
2017-08-20T11:55:31.129Z,0.90
2017-08-20T11:57:58.646Z,1.20
2017-08-20T12:00:26.182Z,1.20
2017-08-20T12:02:53.718Z,1.20
2017-08-20T12:05:21.238Z,1.50
2017-08-20T12:07:48.796Z,1.17
2017-08-20T12:10:16.312Z,1.57
2017-08-20T12:12:44.604Z,1.13
2017-08-20T12:15:12.138Z,1.10
2017-08-20T12:17:39.677Z,1.13
2017-08-20T12:20:07.221Z,0.90
2017-08-20T12:22:34.740Z,1.17
2017-08-20T12:25:03.029Z,1.03
2017-08-20T12:27:30.558Z,1.10
2017-08-20T12:29:58.074Z,1.27
2017-08-20T12:32:25.623Z,1.20
2017-08-20T12:34:53.145Z,1.20
2017-08-20T12:37:20.790Z,1.20
2017-08-20T12:39:49.142Z,1.03
2017-08-20T12:42:16.674Z,1.30
2017-08-20T12:44:44.194Z,1.43
2017-08-20T12:47:11.729Z,1.27
2017-08-20T12:49:39.249Z,1.53
2017-08-20T12:52:06.799Z,1.20
2017-08-20T12:54:34.320Z,1.30
2017-08-20T12:57:01.835Z,1.27
2017-08-20T12:59:29.454Z,1.23
2017-08-20T13:01:57.790Z,1.10
2017-08-20T13:04:25.334Z,1.10
2017-08-20T13:06:52.856Z,1.47
2017-08-20T13:09:21.477Z,1.23
2017-08-20T13:11:49.003Z,1.50
2017-08-20T13:14:16.882Z,1.20
2017-08-20T13:16:44.400Z,1.10
2017-08-20T13:19:11.956Z,1.27
2017-08-20T13:21:39.481Z,0.90
2017-08-20T13:24:07.009Z,1.00
2017-08-20T13:26:34.533Z,1.10
2017-08-20T13:29:02.075Z,1.37
2017-08-20T13:31:29.591Z,1.13
2017-08-20T13:33:57.125Z,1.13
2017-08-20T13:36:25.412Z,1.50
2017-08-20T13:38:53.721Z,1.07
2017-08-20T13:41:21.243Z,0.90
2017-08-20T13:43:48.754Z,1.13
2017-08-20T13:46:16.308Z,1.50
2017-08-20T13:48:43.929Z,1.23
2017-08-20T13:51:11.465Z,1.07
2017-08-20T13:56:12.737Z,1.40
2017-08-20T13:58:40.249Z,1.20
2017-08-20T14:01:07.756Z,2.00
2017-08-20T14:03:36.049Z,1.20
2017-08-20T14:06:03.567Z,1.30
2017-08-20T14:08:31.113Z,1.13
2017-08-20T14:10:58.637Z,1.30
2017-08-20T14:13:26.222Z,1.73
2017-08-20T14:15:53.735Z,1.00
2017-08-20T14:18:22.025Z,1.20
2017-08-20T14:20:49.857Z,1.57
2017-08-20T14:23:18.131Z,1.23
2017-08-20T14:25:45.656Z,1.13
2017-08-20T14:28:13.170Z,1.50
2017-08-20T14:30:41.462Z,1.40
2017-08-20T14:33:08.968Z,1.27
2017-08-20T14:35:36.503Z,1.17
2017-08-20T14:38:04.010Z,1.40
2017-08-20T14:40:32.317Z,1.30
2017-08-20T14:42:59.841Z,1.10
2017-08-20T14:45:28.139Z,1.10
2017-08-20T14:47:55.694Z,1.50
2017-08-20T14:50:23.207Z,1.70
2017-08-20T14:52:50.766Z,1.50
2017-08-20T14:55:18.284Z,1.00
2017-08-20T14:57:45.821Z,1.27
2017-08-20T15:00:13.337Z,1.17
2017-08-20T15:02:40.873Z,0.90
2017-08-20T15:05:08.400Z,1.13
2017-08-20T15:07:35.933Z,1.30
2017-08-20T15:10:03.464Z,1.57
2017-08-20T15:12:31.027Z,1.83
2017-08-20T15:14:58.538Z,1.30
2017-08-20T15:17:29.507Z,1.50
2017-08-20T15:19:57.021Z,1.20
2017-08-20T15:22:25.316Z,1.40
2017-08-20T15:24:52.863Z,1.60
2017-08-20T15:27:21.166Z,0.90
2017-08-20T15:29:48.708Z,1.40
2017-08-20T15:32:16.219Z,1.40
2017-08-20T15:34:43.755Z,1.40
2017-08-20T15:37:11.267Z,1.13
2017-08-20T15:39:39.565Z,1.30
2017-08-20T15:42:07.096Z,1.40
2017-08-20T15:44:37.532Z,1.30
2017-08-20T15:47:05.837Z,1.20
2017-08-20T15:49:33.346Z,1.50
2017-08-20T15:52:00.879Z,0.93
2017-08-20T15:54:28.402Z,1.30
2017-08-20T15:56:55.925Z,1.27
2017-08-20T15:59:23.448Z,1.40
2017-08-20T16:01:50.959Z,1.50
2017-08-20T16:04:19.261Z,1.27
2017-08-20T16:06:46.789Z,1.33
2017-08-20T16:09:14.332Z,1.27
2017-08-20T16:11:41.842Z,1.10
2017-08-20T16:14:09.369Z,1.70
2017-08-20T16:16:37.645Z,1.10
2017-08-20T16:19:05.958Z,1.40
2017-08-20T16:21:33.478Z,1.77
2017-08-20T16:24:01.773Z,1.33
2017-08-20T16:26:29.288Z,1.20
2017-08-20T16:28:56.835Z,1.83
2017-08-20T16:31:24.354Z,1.63
2017-08-20T16:33:51.910Z,1.60
2017-08-20T16:36:19.440Z,1.73
2017-08-20T16:38:47.727Z,1.90
2017-08-20T16:41:16.059Z,1.60
2017-08-20T16:43:43.746Z,1.43
2017-08-20T16:46:11.291Z,1.27
2017-08-20T16:48:38.796Z,1.70
2017-08-20T16:51:06.451Z,1.50
2017-08-20T16:53:34.007Z,1.60
2017-08-20T16:56:02.323Z,1.67
2017-08-20T16:58:29.854Z,1.57
2017-08-20T17:00:57.398Z,1.40
2017-08-20T17:03:24.927Z,1.17
2017-08-20T17:05:52.466Z,1.83
2017-08-20T17:08:20.204Z,1.67
2017-08-20T17:10:47.816Z,1.30
2017-08-20T17:13:15.338Z,1.23
2017-08-20T17:15:42.885Z,1.77
2017-08-20T17:18:10.448Z,1.20
2017-08-20T17:20:37.969Z,1.30
2017-08-20T17:23:05.509Z,1.27
2017-08-20T17:25:33.025Z,1.10
2017-08-20T17:28:00.566Z,1.37
2017-08-20T17:30:28.097Z,1.10
2017-08-20T17:32:56.420Z,1.20
2017-08-20T17:35:27.007Z,1.30
2017-08-20T17:37:54.521Z,1.43
2017-08-20T17:40:22.065Z,1.20
2017-08-20T17:42:49.584Z,1.17
2017-08-20T17:45:18.160Z,1.33
2017-08-20T17:47:45.671Z,1.27
2017-08-20T17:50:13.191Z,1.43
2017-08-20T17:52:41.489Z,1.30
2017-08-20T17:55:09.024Z,1.07
2017-08-20T17:57:37.308Z,1.53
2017-08-20T18:00:05.674Z,1.53
2017-08-20T18:02:33.196Z,1.23
2017-08-20T18:05:00.750Z,1.40
2017-08-20T18:07:28.301Z,1.30
2017-08-20T18:09:55.828Z,1.30
2017-08-20T18:12:23.374Z,1.50
2017-08-20T18:14:51.651Z,1.57
2017-08-20T18:17:20.796Z,1.43
2017-08-20T18:25:40.931Z,1.47
2017-08-20T18:28:08.546Z,1.50
2017-08-20T18:30:37.122Z,1.37
2017-08-20T18:33:04.706Z,1.57
2017-08-20T18:35:32.280Z,1.50
2017-08-20T18:37:59.846Z,1.60
2017-08-20T18:40:28.463Z,1.40
2017-08-20T18:42:56.021Z,1.60
2017-08-20T18:45:23.599Z,1.50
2017-08-20T18:47:51.183Z,1.60
2017-08-20T18:50:18.800Z,1.00
2017-08-20T18:52:46.385Z,1.50
2017-08-20T18:55:13.969Z,1.30
2017-08-20T18:57:41.507Z,1.50
2017-08-20T19:00:09.134Z,1.80
2017-08-20T19:02:36.697Z,1.62
2017-08-20T19:05:04.334Z,1.70
2017-08-20T19:07:37.157Z,1.90
2017-08-20T19:10:04.723Z,1.92
2017-08-20T19:12:32.361Z,1.40
2017-08-20T19:15:00.693Z,1.40
2017-08-20T19:17:28.314Z,1.55
2017-08-20T19:19:55.877Z,1.40
2017-08-20T19:22:24.198Z,1.35
2017-08-20T19:24:51.754Z,1.77
2017-08-20T19:27:19.379Z,2.03
2017-08-20T19:29:46.966Z,2.30
2017-08-20T19:32:14.642Z,1.70
2017-08-20T19:34:42.200Z,1.55
2017-08-20T19:37:09.796Z,1.62
2017-08-20T19:39:37.358Z,1.60
2017-08-20T19:42:04.935Z,1.90
2017-08-20T19:44:32.532Z,1.58
2017-08-20T19:47:00.135Z,1.92
2017-08-20T19:49:27.778Z,1.30
2017-08-20T19:51:55.595Z,1.27
2017-08-20T19:54:23.290Z,1.35
2017-08-20T19:56:51.884Z,1.62
2017-08-20T19:59:19.498Z,2.35
2017-08-20T20:01:48.033Z,1.80
2017-08-20T20:04:18.616Z,1.35
2017-08-20T20:06:46.216Z,1.67
2017-08-20T20:09:14.692Z,1.70
2017-08-20T20:11:42.239Z,1.40
2017-08-20T20:14:09.797Z,1.80
2017-08-20T20:16:37.414Z,1.75
2017-08-20T20:19:04.960Z,1.60
2017-08-20T20:21:32.542Z,2.10
2017-08-20T20:24:00.110Z,1.60
2017-08-20T20:26:27.961Z,1.48
2017-08-20T20:28:55.555Z,1.45
2017-08-20T20:31:23.927Z,1.75
2017-08-20T20:33:51.462Z,1.90
2017-08-20T20:36:19.094Z,1.80
2017-08-20T20:38:48.340Z,1.58
2017-08-20T20:41:16.087Z,1.55
2017-08-20T20:43:43.635Z,1.50
2017-08-20T20:46:11.172Z,1.85
2017-08-20T20:48:40.173Z,1.62
2017-08-20T20:51:07.751Z,1.75
2017-08-20T20:53:37.611Z,2.00
2017-08-20T20:56:05.200Z,1.70
2017-08-20T20:58:32.795Z,1.50
2017-08-20T21:01:00.354Z,1.70
2017-08-20T21:03:27.928Z,1.83
2017-08-20T21:05:56.500Z,1.70
2017-08-20T21:08:24.858Z,1.40
2017-08-20T21:10:52.407Z,1.70
2017-08-20T21:13:19.959Z,2.20
2017-08-20T21:15:48.266Z,1.70
2017-08-20T21:18:15.808Z,1.73
2017-08-20T21:20:43.362Z,1.90
2017-08-20T21:23:10.909Z,1.80
2017-08-20T21:25:39.773Z,1.60
2017-08-20T21:28:07.327Z,1.70
2017-08-20T21:30:36.063Z,2.00
2017-08-20T21:33:04.384Z,2.30
2017-08-20T21:35:31.994Z,1.67
2017-08-20T21:37:59.539Z,1.40
2017-08-20T21:40:27.116Z,1.80
2017-08-20T21:42:54.671Z,1.92
2017-08-20T21:45:22.211Z,1.70
2017-08-20T21:47:50.531Z,1.55
2017-08-20T21:50:18.081Z,1.65
2017-08-20T21:52:45.686Z,1.80
2017-08-20T21:55:13.241Z,1.95
2017-08-20T21:57:41.582Z,1.92
2017-08-20T22:00:09.136Z,2.03
2017-08-20T22:02:36.705Z,2.40
2017-08-20T22:05:04.278Z,2.20
2017-08-20T22:07:31.932Z,2.40
2017-08-20T22:09:59.478Z,1.75
2017-08-20T22:12:27.046Z,2.70
2017-08-20T22:14:54.579Z,2.10
2017-08-20T22:17:22.983Z,2.10
2017-08-20T22:19:51.358Z,1.80
2017-08-20T22:22:18.896Z,2.60
2017-08-20T22:24:46.454Z,2.28
2017-08-20T22:27:14.201Z,2.95
2017-08-20T22:29:41.779Z,2.40
2017-08-20T22:32:09.351Z,2.37
2017-08-20T22:34:36.942Z,1.80
2017-08-20T22:37:06.109Z,2.45
2017-08-20T22:39:33.731Z,2.50
2017-08-20T22:42:01.281Z,2.15
2017-08-20T22:44:28.896Z,2.67
2017-08-20T22:46:56.503Z,2.25
2017-08-20T22:49:24.993Z,2.12
2017-08-20T22:51:53.403Z,2.20
2017-08-20T22:54:20.974Z,2.47
2017-08-20T22:56:48.548Z,2.00
2017-08-20T22:59:16.141Z,1.95
2017-08-20T23:01:43.722Z,2.00
2017-08-20T23:04:12.168Z,2.75
2017-08-20T23:06:40.316Z,2.30
2017-08-20T23:09:07.951Z,2.05
2017-08-20T23:11:36.352Z,2.45
2017-08-20T23:14:06.288Z,2.15
2017-08-20T23:16:33.984Z,2.22
2017-08-20T23:19:04.260Z,2.40
2017-08-20T23:21:32.576Z,2.00
2017-08-20T23:24:03.545Z,2.00
2017-08-20T23:26:31.178Z,2.05
2017-08-20T23:28:58.764Z,1.75
2017-08-20T23:31:27.597Z,2.15
2017-08-20T23:33:55.972Z,1.95
2017-08-20T23:36:23.887Z,2.05
2017-08-20T23:38:51.486Z,2.08
2017-08-20T23:41:19.046Z,1.98
2017-08-20T23:43:46.657Z,2.20
2017-08-20T23:46:14.458Z,2.37
2017-08-20T23:48:42.025Z,2.80
2017-08-20T23:51:09.605Z,2.10
2017-08-20T23:53:39.112Z,2.67
2017-08-20T23:56:06.692Z,2.10
2017-08-20T23:58:34.254Z,2.15
